Time;durP1;ratioP1;P1;durP2;ratioP2;P2;SDS_P1;SDS_P2;PMS_P1;PMS_P2;Temp;Humidity;BMP_temperature;BMP_pressure;BME280_temperature;BME280_humidity;BME280_pressure;Samples;Min_cycle;Max_cycle;Signal;HPM_P1;HPM_P2
2024/03/30 00:01:02;;;;;;;2.10;1.20;;;;;;;11.28;100.00;99652.22;6248511;28;20049;-77
2024/03/30 00:04:04;;;;;;;1.95;1.35;;;;;;;11.33;100.00;99657.16;6249771;28;20072;-77
2024/03/30 00:07:05;;;;;;;1.52;1.13;;;;;;;11.36;100.00;99646.41;6249969;28;20057;-78
2024/03/30 00:10:07;;;;;;;2.28;1.40;;;;;;;11.36;100.00;99641.16;6249540;28;20045;-78
2024/03/30 00:13:10;;;;;;;3.47;1.40;;;;;;;11.33;100.00;99641.38;6249939;28;20418;-78
2024/03/30 00:16:12;;;;;;;2.85;1.65;;;;;;;11.29;100.00;99650.44;6249684;28;20056;-78
2024/03/30 00:19:15;;;;;;;1.90;1.30;;;;;;;11.30;100.00;99657.38;6248454;28;20053;-78
2024/03/30 00:22:16;;;;;;;1.15;1.05;;;;;;;11.27;100.00;99663.72;6249608;28;20232;-78
2024/03/30 00:25:18;;;;;;;2.55;1.30;;;;;;;11.26;100.00;99661.16;6249507;28;20441;-76
2024/03/30 00:28:20;;;;;;;2.03;1.50;;;;;;;11.22;100.00;99657.09;6254336;28;20052;-78
2024/03/30 00:31:25;;;;;;;2.15;1.30;;;;;;;11.25;100.00;99662.97;6254055;28;20038;-79
2024/03/30 00:34:26;;;;;;;1.15;1.02;;;;;;;11.23;100.00;99664.88;6254447;28;20056;-78
2024/03/30 00:37:26;;;;;;;1.45;1.00;;;;;;;11.25;100.00;99677.91;6254031;28;20053;-78
2024/03/30 00:40:28;;;;;;;1.67;1.20;;;;;;;11.26;100.00;99693.56;6252977;28;20041;-78
2024/03/30 00:43:29;;;;;;;2.00;1.50;;;;;;;11.24;100.00;99692.03;6254286;28;20060;-77
2024/03/30 00:46:31;;;;;;;4.00;1.33;;;;;;;11.24;100.00;99698.13;6249865;28;20443;-77
2024/03/30 00:49:31;;;;;;;1.85;1.58;;;;;;;11.22;100.00;99689.50;6250510;28;20041;-78
2024/03/30 00:52:32;;;;;;;1.70;1.42;;;;;;;11.17;100.00;99703.00;6254632;28;20076;-77
2024/03/30 00:55:33;;;;;;;1.67;1.40;;;;;;;11.19;100.00;99702.88;6254364;28;20046;-78
2024/03/30 00:58:35;;;;;;;2.00;1.38;;;;;;;11.22;100.00;99684.25;6252692;28;20053;-77
2024/03/30 01:01:36;;;;;;;2.42;1.67;;;;;;;10.77;100.00;99686.63;6253496;28;20041;-78
2024/03/30 01:04:37;;;;;;;2.47;1.75;;;;;;;10.97;100.00;99694.84;6253500;28;20045;-78
2024/03/30 01:07:39;;;;;;;1.67;1.20;;;;;;;11.04;100.00;99699.56;6253443;28;20049;-76
2024/03/30 01:10:40;;;;;;;2.60;1.85;;;;;;;11.06;100.00;99712.59;6253087;28;20049;-76
2024/03/30 01:13:43;;;;;;;2.65;0.93;;;;;;;11.06;100.00;99691.56;6250267;28;20053;-79
2024/03/30 01:16:45;;;;;;;2.72;1.80;;;;;;;11.01;100.00;99662.97;6246222;28;20068;-77
2024/03/30 01:19:46;;;;;;;1.92;1.38;;;;;;;11.00;100.00;99660.47;6258397;28;20052;-78
2024/03/30 01:22:48;;;;;;;2.70;1.48;;;;;;;11.00;100.00;99652.59;6254800;28;20102;-78
2024/03/30 01:25:50;;;;;;;1.63;1.13;;;;;;;10.99;100.00;99629.84;6252839;28;20060;-79
2024/03/30 01:28:54;;;;;;;1.88;1.20;;;;;;;11.00;100.00;99636.81;6252872;28;20454;-78
2024/03/30 01:31:55;;;;;;;1.92;1.42;;;;;;;11.03;100.00;99639.19;6252529;28;20122;-78
2024/03/30 01:34:57;;;;;;;1.42;1.30;;;;;;;10.99;100.00;99645.63;6244675;28;20053;-78
2024/03/30 01:37:57;;;;;;;2.38;1.52;;;;;;;10.97;100.00;99647.53;6252042;28;20053;-77
2024/03/30 01:40:59;;;;;;;2.42;1.50;;;;;;;10.94;100.00;99651.22;6251607;28;20405;-78
2024/03/30 01:44:01;;;;;;;2.60;1.50;;;;;;;10.96;100.00;99656.38;6252407;28;20492;-78
2024/03/30 01:47:03;;;;;;;2.05;1.63;;;;;;;10.95;100.00;99644.19;6252760;28;20422;-78
2024/03/30 01:50:06;;;;;;;1.42;1.23;;;;;;;10.93;100.00;99641.66;6244047;28;20045;-78
2024/03/30 01:53:10;;;;;;;2.47;1.58;;;;;;;10.92;100.00;99629.47;6244476;28;20081;-78
2024/03/30 01:56:11;;;;;;;2.10;1.58;;;;;;;10.94;100.00;99624.94;6252359;28;20045;-78
2024/03/30 01:59:14;;;;;;;1.58;1.30;;;;;;;10.95;100.00;99626.63;6250681;28;20362;-77
2024/03/30 02:02:15;;;;;;;2.45;1.58;;;;;;;10.88;100.00;99635.91;6252065;28;20046;-78
2024/03/30 02:05:17;;;;;;;2.00;1.70;;;;;;;10.86;100.00;99624.66;6251822;28;20072;-78
2024/03/30 02:08:19;;;;;;;1.73;1.40;;;;;;;10.82;100.00;99634.56;6252057;28;20053;-78
2024/03/30 02:11:20;;;;;;;2.03;1.40;;;;;;;10.82;100.00;99628.47;6251766;28;20049;-78
2024/03/30 02:14:22;;;;;;;1.30;1.15;;;;;;;10.83;100.00;99636.22;6251988;28;20049;-78
2024/03/30 02:17:24;;;;;;;2.97;1.55;;;;;;;10.83;100.00;99632.75;6251630;28;20069;-78
2024/03/30 02:20:25;;;;;;;3.03;1.55;;;;;;;10.84;100.00;99635.28;6250620;28;20422;-78
2024/03/30 02:23:28;;;;;;;1.60;1.35;;;;;;;10.84;100.00;99632.66;6251664;28;20056;-78
2024/03/30 02:26:30;;;;;;;0.90;0.90;;;;;;;10.85;100.00;99621.19;6251681;28;20049;-77
2024/03/30 02:29:32;;;;;;;3.53;1.15;;;;;;;10.86;100.00;99606.28;6251344;28;20357;-78
2024/03/30 02:32:34;;;;;;;1.45;1.10;;;;;;;10.88;100.00;99605.19;6251177;28;20499;-77
2024/03/30 02:35:35;;;;;;;1.88;1.38;;;;;;;10.91;100.00;99604.97;6259668;28;20046;-78
2024/03/30 02:38:37;;;;;;;1.38;1.25;;;;;;;10.86;100.00;99598.38;6242007;28;20056;-78
2024/03/30 02:41:38;;;;;;;1.75;1.30;;;;;;;10.86;100.00;99588.72;6251120;28;20541;-78
2024/03/30 02:44:39;;;;;;;1.40;1.10;;;;;;;10.84;100.00;99581.88;6251039;28;20045;-78
2024/03/30 02:47:40;;;;;;;1.45;1.10;;;;;;;10.81;100.00;99579.47;6251311;28;20124;-78
2024/03/30 02:50:41;;;;;;;2.20;1.40;;;;;;;10.79;100.00;99590.09;6249871;28;20052;-78
2024/03/30 02:53:44;;;;;;;2.45;1.40;;;;;;;10.80;100.00;99589.13;6251137;28;20049;-77
2024/03/30 02:56:44;;;;;;;1.55;1.20;;;;;;;10.77;100.00;99575.41;6250847;28;20061;-77
2024/03/30 02:59:45;;;;;;;2.78;1.38;;;;;;;10.75;100.00;99583.38;6249754;28;20073;-77
2024/03/30 03:02:47;;;;;;;1.50;1.30;;;;;;;10.75;100.00;99582.53;6250753;28;20060;-77
2024/03/30 03:05:48;;;;;;;3.40;1.30;;;;;;;10.73;100.00;99576.56;6250631;28;20354;-78
2024/03/30 03:08:51;;;;;;;2.67;1.15;;;;;;;10.75;100.00;99569.41;6250858;28;20053;-77
2024/03/30 03:11:51;;;;;;;1.75;1.40;;;;;;;10.73;100.00;99572.16;6250405;28;20345;-77
2024/03/30 03:14:52;;;;;;;2.05;1.13;;;;;;;10.72;100.00;99567.00;6250668;28;20053;-78
2024/03/30 03:17:53;;;;;;;1.60;1.50;;;;;;;10.72;100.00;99567.84;6245832;28;20052;-77
2024/03/30 03:20:54;;;;;;;1.30;1.20;;;;;;;10.70;100.00;99571.53;6248317;28;20041;-77
2024/03/30 03:23:56;;;;;;;1.38;1.17;;;;;;;10.66;100.00;99563.88;6250442;28;20046;-78
2024/03/30 03:26:57;;;;;;;2.47;1.20;;;;;;;10.62;100.00;99551.91;6250514;28;20053;-78
2024/03/30 03:29:58;;;;;;;1.35;1.20;;;;;;;10.58;100.00;99545.22;6242610;28;20053;-77
2024/03/30 03:33:00;;;;;;;1.50;1.33;;;;;;;10.51;100.00;99532.63;6249952;28;20080;-77
2024/03/30 03:36:01;;;;;;;1.83;1.20;;;;;;;10.47;100.00;99526.75;6250261;28;20056;-77
2024/03/30 03:39:03;;;;;;;5.80;1.75;;;;;;;10.47;100.00;99518.88;6249072;28;20061;-78
2024/03/30 03:42:05;;;;;;;2.72;1.38;;;;;;;10.46;100.00;99519.00;6242161;28;20041;-78
2024/03/30 03:45:06;;;;;;;2.38;1.30;;;;;;;10.45;100.00;99525.19;6249979;28;20046;-78
2024/03/30 03:48:07;;;;;;;1.70;1.27;;;;;;;10.46;100.00;99530.34;6250248;28;20049;-77
2024/03/30 03:51:09;;;;;;;2.40;1.63;;;;;;;10.39;100.00;99526.47;6249889;28;20052;-77
2024/03/30 03:54:12;;;;;;;1.80;1.23;;;;;;;10.42;100.00;99534.13;6250300;28;20430;-77
2024/03/30 03:57:13;;;;;;;1.92;1.65;;;;;;;10.39;100.00;99523.84;6247862;28;20056;-77
2024/03/30 04:00:14;;;;;;;1.55;1.45;;;;;;;10.40;100.00;99528.13;6240147;28;20354;-78
2024/03/30 04:03:15;;;;;;;2.47;1.67;;;;;;;10.39;100.00;99542.22;6255778;28;20057;-77
2024/03/30 04:06:16;;;;;;;2.60;1.63;;;;;;;10.40;100.00;99525.50;6255153;28;20056;-77
2024/03/30 04:09:18;;;;;;;3.00;1.83;;;;;;;10.32;100.00;99514.75;6255547;28;20446;-77
2024/03/30 04:12:19;;;;;;;2.85;1.60;;;;;;;10.36;100.00;99517.03;6253241;28;20049;-77
2024/03/30 04:15:20;;;;;;;1.95;1.40;;;;;;;10.38;100.00;99520.38;6254581;28;20110;-77
2024/03/30 04:18:21;;;;;;;1.67;1.48;;;;;;;10.35;100.00;99519.75;6245287;28;20053;-78
2024/03/30 04:21:22;;;;;;;2.55;1.50;;;;;;;10.34;100.00;99516.28;6254706;28;20092;-78
2024/03/30 04:24:25;;;;;;;2.03;1.75;;;;;;;10.33;100.00;99513.78;6254500;28;20041;-77
2024/03/30 04:27:25;;;;;;;2.35;1.80;;;;;;;10.36;100.00;99506.53;6254445;28;20045;-77
2024/03/30 04:30:26;;;;;;;1.48;1.30;;;;;;;10.34;100.00;99510.19;6254203;28;20343;-78
2024/03/30 04:33:27;;;;;;;2.72;1.95;;;;;;;10.35;100.00;99507.44;6254200;28;20365;-78
2024/03/30 04:36:28;;;;;;;4.10;2.10;;;;;;;10.36;100.00;99492.56;6254228;28;20049;-77
2024/03/30 04:39:31;;;;;;;1.80;1.40;;;;;;;10.39;100.00;99492.31;6252826;28;20053;-77
2024/03/30 04:42:32;;;;;;;2.58;1.77;;;;;;;10.37;100.00;99489.81;6253833;28;20042;-77
2024/03/30 04:45:34;;;;;;;3.05;2.00;;;;;;;10.39;100.00;99487.91;6253910;28;20049;-77
2024/03/30 04:48:34;;;;;;;1.98;1.63;;;;;;;10.40;100.00;99491.38;6245825;28;20041;-77
2024/03/30 04:51:36;;;;;;;4.75;1.80;;;;;;;10.43;100.00;99490.31;6245542;28;20346;-77
2024/03/30 04:54:37;;;;;;;2.53;2.00;;;;;;;10.38;100.00;99493.28;6245542;28;20141;-77
2024/03/30 04:57:39;;;;;;;3.58;1.70;;;;;;;10.37;100.00;99489.81;6251905;28;20140;-77
2024/03/30 05:00:39;;;;;;;3.33;1.80;;;;;;;10.36;100.00;99498.66;6249128;28;20064;-77
2024/03/30 05:03:40;;;;;;;3.60;2.03;;;;;;;10.38;100.00;99486.22;6249764;28;20054;-77
2024/03/30 05:06:41;;;;;;;3.08;1.80;;;;;;;10.39;100.00;99492.31;6240799;28;20057;-77
2024/03/30 05:09:43;;;;;;;2.30;2.10;;;;;;;10.39;100.00;99485.28;6239739;28;20077;-77
2024/03/30 05:12:44;;;;;;;2.55;2.03;;;;;;;10.36;100.00;99488.16;6237489;28;20053;-77
2024/03/30 05:15:45;;;;;;;2.25;1.65;;;;;;;10.34;100.00;99486.56;6239817;28;20073;-77
2024/03/30 05:18:46;;;;;;;2.45;1.40;;;;;;;10.32;100.00;99484.06;6238855;28;20549;-77
2024/03/30 05:21:47;;;;;;;3.08;1.70;;;;;;;10.32;100.00;99481.44;6237334;28;20186;-77
2024/03/30 05:24:50;;;;;;;2.72;2.03;;;;;;;10.28;100.00;99479.97;6239708;28;20085;-77
2024/03/30 05:27:50;;;;;;;4.20;1.95;;;;;;;10.29;100.00;99471.16;6238824;28;20046;-77
2024/03/30 05:30:52;;;;;;;2.90;2.20;;;;;;;10.26;100.00;99463.47;6241671;28;20050;-78
2024/03/30 05:33:53;;;;;;;3.50;1.90;;;;;;;10.27;100.00;99472.22;6246298;28;20389;-77
2024/03/30 05:36:54;;;;;;;2.60;2.08;;;;;;;10.27;100.00;99462.56;6251629;28;20061;-77
2024/03/30 05:39:56;;;;;;;4.20;2.05;;;;;;;10.30;100.00;99474.59;6252357;28;20430;-77
2024/03/30 05:42:57;;;;;;;4.25;1.88;;;;;;;10.32;100.00;99473.56;6252668;28;20095;-77
2024/03/30 05:45:58;;;;;;;7.32;2.42;;;;;;;10.31;100.00;99464.00;6252374;28;20362;-78
2024/03/30 05:48:59;;;;;;;2.45;1.90;;;;;;;10.37;100.00;99466.19;6252660;28;20056;-77
2024/03/30 05:52:00;;;;;;;2.60;1.85;;;;;;;10.39;100.00;99472.16;6252267;28;20046;-78
2024/03/30 05:55:03;;;;;;;3.10;1.70;;;;;;;10.41;100.00;99462.38;6252508;28;20438;-77
2024/03/30 05:58:09;;;;;;;4.97;2.10;;;;;;;10.36;100.00;99467.13;6251262;28;20136;-78
2024/03/30 06:01:09;;;;;;;2.45;2.05;;;;;;;10.44;100.00;99466.56;6260995;22;20054;-80
2024/03/30 06:04:11;;;;;;;4.07;1.85;;;;;;;10.43;100.00;99461.44;6228313;28;20224;-80
2024/03/30 06:07:11;;;;;;;2.45;1.80;;;;;;;10.44;100.00;99461.31;6252050;28;20435;-78
2024/03/30 06:10:14;;;;;;;3.50;1.90;;;;;;;10.47;100.00;99458.47;6251559;28;20053;-80
2024/03/30 06:13:14;;;;;;;4.05;2.10;;;;;;;10.46;100.00;99450.72;6245137;28;20096;-80
2024/03/30 06:16:15;;;;;;;3.83;2.25;;;;;;;10.37;100.00;99453.06;6236868;28;20106;-80
2024/03/30 06:19:16;;;;;;;2.60;1.67;;;;;;;10.34;100.00;99465.56;6221755;28;20132;-79
2024/03/30 06:22:17;;;;;;;1.73;1.25;;;;;;;10.35;100.00;99457.56;6236528;28;20053;-78
2024/03/30 06:25:20;;;;;;;4.63;1.50;;;;;;;10.47;100.00;99474.22;6251158;28;20058;-78
2024/03/30 06:28:20;;;;;;;2.92;1.60;;;;;;;10.45;100.00;99467.41;6251538;28;20056;-80
2024/03/30 06:31:22;;;;;;;2.75;1.85;;;;;;;10.47;100.00;99455.84;6251207;28;20045;-79
2024/03/30 06:34:22;;;;;;;3.42;1.60;;;;;;;10.58;100.00;99460.28;6251604;28;20465;-78
2024/03/30 06:37:23;;;;;;;3.63;1.73;;;;;;;10.61;100.00;99454.81;6243329;28;20049;-78
2024/03/30 06:43:51;;;;;;;4.60;1.80;;;;;;;10.66;100.00;99450.88;6202690;28;20081;-79
2024/03/30 06:46:52;;;;;;;2.05;1.55;;;;;;;10.70;100.00;99454.13;6232604;28;20050;-78
2024/03/30 06:49:53;;;;;;;3.58;1.67;;;;;;;10.77;100.00;99452.72;6232556;28;20061;-79
2024/03/30 06:52:55;;;;;;;3.17;1.90;;;;;;;10.86;100.00;99453.84;6251207;28;20052;-78
2024/03/30 06:55:57;;;;;;;2.15;1.30;;;;;;;10.99;100.00;99437.94;6250800;28;20049;-79
2024/03/30 06:58:59;;;;;;;2.15;1.60;;;;;;;11.01;100.00;99436.91;6242797;28;20049;-78
2024/03/30 07:01:59;;;;;;;1.85;1.27;;;;;;;11.13;100.00;99443.03;6250603;28;20049;-78
2024/03/30 07:05:00;;;;;;;2.67;1.40;;;;;;;11.24;100.00;99434.28;6250620;28;20045;-78
2024/03/30 07:08:01;;;;;;;2.00;1.30;;;;;;;11.33;100.00;99429.16;6250571;28;20053;-79
2024/03/30 07:11:04;;;;;;;2.35;1.50;;;;;;;11.36;100.00;99426.31;6250371;28;20069;-78
2024/03/30 07:14:05;;;;;;;2.00;1.10;;;;;;;11.51;100.00;99426.88;6242265;28;20056;-78
2024/03/30 07:17:06;;;;;;;2.50;1.23;;;;;;;11.67;100.00;99418.59;6241749;28;20057;-78
2024/03/30 07:20:08;;;;;;;2.47;1.00;;;;;;;11.89;100.00;99429.13;6242024;28;20053;-78
2024/03/30 07:23:09;;;;;;;0.82;0.65;;;;;;;12.07;100.00;99418.09;6243666;28;20042;-78
2024/03/30 07:26:11;;;;;;;1.42;0.98;;;;;;;12.12;100.00;99406.22;6222769;28;20049;-78
2024/03/30 07:29:12;;;;;;;1.00;0.70;;;;;;;12.29;100.00;99404.03;6220547;28;20045;-78
2024/03/30 07:32:12;;;;;;;2.25;1.05;;;;;;;12.32;100.00;99409.88;6219659;28;20041;-78
2024/03/30 07:35:14;;;;;;;3.63;1.08;;;;;;;12.42;100.00;99402.06;6232923;28;20471;-79
2024/03/30 07:38:14;;;;;;;0.73;0.70;;;;;;;12.43;100.00;99409.81;6218652;28;20046;-78
2024/03/30 07:41:17;;;;;;;1.20;0.85;;;;;;;12.43;100.00;99401.09;6222931;28;20080;-77
2024/03/30 07:44:18;;;;;;;0.65;0.55;;;;;;;12.53;100.00;99409.88;6222663;28;20069;-76
2024/03/30 07:47:20;;;;;;;2.45;0.80;;;;;;;12.56;100.00;99400.91;6202669;28;20104;-77
2024/03/30 07:50:21;;;;;;;0.70;0.70;;;;;;;12.54;100.00;99402.84;6215217;28;20046;-76
2024/03/30 07:53:23;;;;;;;3.47;0.82;;;;;;;12.56;100.00;99407.00;6212147;28;20053;-78
2024/03/30 07:56:25;;;;;;;0.95;0.70;;;;;;;12.57;100.00;99399.94;6224891;28;20046;-78
2024/03/30 07:59:26;;;;;;;3.28;1.17;;;;;;;12.56;100.00;99396.47;6225404;28;20050;-78
2024/03/30 08:02:28;;;;;;;1.45;0.80;;;;;;;12.68;100.00;99395.47;6224687;28;20357;-78
2024/03/30 08:05:28;;;;;;;2.25;1.02;;;;;;;12.80;100.00;99392.75;6224475;28;20061;-79
2024/03/30 08:08:30;;;;;;;2.70;1.02;;;;;;;12.94;100.00;99408.22;6225319;28;20038;-79
2024/03/30 08:11:32;;;;;;;4.30;0.90;;;;;;;13.03;100.00;99406.63;6205646;28;20049;-78
2024/03/30 08:14:33;;;;;;;1.45;0.70;;;;;;;12.98;100.00;99407.00;6207032;28;20053;-79
2024/03/30 08:17:34;;;;;;;2.13;0.80;;;;;;;13.07;100.00;99405.38;6213366;28;20455;-79
2024/03/30 08:20:34;;;;;;;3.50;1.05;;;;;;;13.09;100.00;99401.66;6219704;28;20362;-79
2024/03/30 08:23:36;;;;;;;1.98;0.90;;;;;;;13.12;100.00;99397.91;6220494;28;20101;-78
2024/03/30 08:26:37;;;;;;;5.28;1.25;;;;;;;13.19;100.00;99391.16;6216259;28;20050;-76
2024/03/30 08:29:39;;;;;;;1.33;0.90;;;;;;;13.26;100.00;99396.75;6214803;28;20054;-76
2024/03/30 08:32:39;;;;;;;1.98;1.10;;;;;;;13.39;100.00;99395.56;6216941;28;20076;-76
2024/03/30 08:35:40;;;;;;;5.70;1.17;;;;;;;13.56;100.00;99396.75;6236666;28;20045;-76
2024/03/30 08:38:42;;;;;;;2.08;1.00;;;;;;;13.69;100.00;99388.59;6245083;28;20076;-76
2024/03/30 08:41:43;;;;;;;2.67;0.80;;;;;;;13.82;100.00;99397.13;6249239;28;20053;-77
2024/03/30 08:44:45;;;;;;;6.60;1.00;;;;;;;13.93;100.00;99399.63;6249253;28;20353;-76
2024/03/30 08:47:46;;;;;;;2.17;0.70;;;;;;;14.14;100.00;99396.88;6224023;28;20046;-76
2024/03/30 08:50:48;;;;;;;1.52;0.55;;;;;;;14.19;100.00;99386.72;6228779;28;20054;-76
2024/03/30 08:53:48;;;;;;;2.55;0.88;;;;;;;14.18;100.00;99390.34;6226943;28;20046;-76
2024/03/30 08:56:51;;;;;;;2.42;0.98;;;;;;;14.31;100.00;99389.25;6229110;28;20041;-76
2024/03/30 08:59:52;;;;;;;1.58;0.80;;;;;;;14.35;100.00;99390.63;6248503;28;20053;-76
2024/03/30 09:02:54;;;;;;;8.88;1.45;;;;;;;14.36;100.00;99395.78;6229794;28;20145;-77
2024/03/30 09:05:54;;;;;;;2.75;0.80;;;;;;;14.43;100.00;99401.34;6230282;28;20152;-76
2024/03/30 09:08:55;;;;;;;6.13;1.05;;;;;;;14.51;100.00;99403.31;6231398;28;20050;-77
2024/03/30 09:11:57;;;;;;;7.10;0.95;;;;;;;14.52;100.00;99400.53;6229218;28;20053;-77
2024/03/30 09:14:58;;;;;;;8.27;1.05;;;;;;;14.56;100.00;99403.72;6228465;28;20046;-77
2024/03/30 09:18:00;;;;;;;7.03;0.70;;;;;;;14.67;100.00;99408.84;6227258;28;20057;-77
2024/03/30 09:21:02;;;;;;;8.00;0.95;;;;;;;14.77;100.00;99408.88;6247981;28;20096;-75
2024/03/30 09:24:03;;;;;;;4.57;0.93;;;;;;;14.83;100.00;99401.19;6218385;28;20435;-71
2024/03/30 09:27:06;;;;;;;4.43;0.65;;;;;;;14.91;100.00;99397.84;6223929;28;20057;-77
2024/03/30 09:30:08;;;;;;;5.32;0.95;;;;;;;15.00;100.00;99394.34;6228011;28;20058;-76
2024/03/30 09:33:10;;;;;;;2.28;0.68;;;;;;;15.06;100.00;99392.94;6244800;28;20129;-77
2024/03/30 09:36:14;;;;;;;5.97;0.93;;;;;;;15.17;100.00;99398.91;6244954;28;20049;-77
2024/03/30 09:39:15;;;;;;;4.88;1.30;;;;;;;15.39;100.00;99396.84;6253405;28;20438;-76
2024/03/30 09:42:32;;;;;;;5.38;1.58;;;;;;;15.57;100.00;99408.31;6224571;28;20062;-75
2024/03/30 09:45:34;;;;;;;12.20;0.95;;;;;;;15.55;100.00;99399.72;6232242;28;20053;-76
2024/03/30 09:48:37;;;;;;;7.28;1.52;;;;;;;15.62;100.00;99411.38;6222348;28;20037;-76
2024/03/30 09:51:41;;;;;;;7.22;1.20;;;;;;;15.69;100.00;99403.72;6235746;28;20176;-76
2024/03/30 09:54:42;;;;;;;6.75;1.08;;;;;;;15.89;100.00;99410.56;6248552;28;20050;-76
2024/03/30 09:57:49;;;;;;;3.05;1.05;;;;;;;16.13;100.00;99411.81;6238767;28;20058;-76
2024/03/30 10:00:51;;;;;;;4.75;1.30;;;;;;;16.12;100.00;99410.97;6248590;28;20060;-76
2024/03/30 10:03:53;;;;;;;4.63;1.35;;;;;;;16.11;100.00;99404.00;6251896;28;20060;-76
2024/03/30 10:07:00;;;;;;;9.60;1.33;;;;;;;16.06;100.00;99416.88;6252095;28;20055;-76
2024/03/30 10:10:05;;;;;;;10.73;1.25;;;;;;;16.08;100.00;99448.50;6251901;28;20053;-76
2024/03/30 10:13:15;;;;;;;6.05;1.15;;;;;;;16.30;100.00;99460.50;6252147;28;20103;-76
2024/03/30 10:16:18;;;;;;;6.18;1.10;;;;;;;16.42;100.00;99452.19;6220876;28;20049;-77
2024/03/30 10:19:20;;;;;;;3.70;0.73;;;;;;;16.48;100.00;99443.63;6215080;28;20054;-77
2024/03/30 10:22:22;;;;;;;4.60;1.00;;;;;;;16.48;100.00;99418.94;6231555;28;20046;-77
2024/03/30 10:25:25;;;;;;;5.70;0.82;;;;;;;16.35;100.00;99437.91;6208708;28;20080;-77
2024/03/30 10:28:26;;;;;;;2.47;0.80;;;;;;;16.29;100.00;99427.03;6213344;28;20053;-77
2024/03/30 10:31:28;;;;;;;6.45;1.50;;;;;;;16.30;100.00;99436.66;6218673;28;20050;-77
2024/03/30 10:34:29;;;;;;;9.82;1.60;;;;;;;16.34;100.00;99435.38;6214142;28;20347;-77
2024/03/30 10:37:31;;;;;;;4.93;1.80;;;;;;;16.34;100.00;99419.47;6218881;28;20362;-77
2024/03/30 10:40:31;;;;;;;10.95;1.58;;;;;;;16.37;100.00;99411.22;6212388;28;20058;-77
2024/03/30 10:43:35;;;;;;;13.57;1.63;;;;;;;16.33;100.00;99402.72;6210940;28;20044;-77
2024/03/30 10:46:36;;;;;;;3.78;1.00;;;;;;;16.34;100.00;99393.78;6225598;28;20042;-77
2024/03/30 10:49:38;;;;;;;4.22;0.98;;;;;;;16.42;100.00;99385.91;6213897;28;20418;-78
2024/03/30 10:52:38;;;;;;;10.25;1.02;;;;;;;16.55;100.00;99379.38;6206397;28;20046;-77
2024/03/30 10:55:40;;;;;;;9.23;1.25;;;;;;;16.54;100.00;99386.50;6211880;28;20057;-77
2024/03/30 10:58:43;;;;;;;3.08;1.40;;;;;;;16.44;100.00;99393.69;6212363;28;20053;-77
2024/03/30 11:01:48;;;;;;;9.13;1.58;;;;;;;16.42;100.00;99396.50;6211973;28;20047;-77
2024/03/30 11:04:50;;;;;;;4.47;1.27;;;;;;;16.49;100.00;99410.00;6212412;28;20057;-77
2024/03/30 11:07:52;;;;;;;3.55;1.33;;;;;;;16.61;100.00;99406.13;6219711;28;20050;-78
2024/03/30 11:10:52;;;;;;;8.93;1.42;;;;;;;16.60;100.00;99422.19;6210938;28;20050;-77
2024/03/30 11:13:55;;;;;;;5.60;0.98;;;;;;;16.68;100.00;99415.13;6210739;28;20453;-78
2024/03/30 11:16:59;;;;;;;5.28;1.20;;;;;;;16.80;100.00;99406.94;6220828;28;20049;-77
2024/03/30 11:20:08;;;;;;;8.48;1.02;;;;;;;16.96;100.00;99412.38;6223140;28;20054;-77
2024/03/30 11:23:20;;;;;;;11.45;3.22;;;;;;;16.97;100.00;99417.53;6225650;28;20073;-77
2024/03/30 11:26:22;;;;;;;10.65;2.03;;;;;;;17.01;100.00;99420.72;6225896;28;20180;-77
2024/03/30 11:29:36;;;;;;;10.13;1.42;;;;;;;17.42;100.00;99423.63;6221691;28;20047;-77
2024/03/30 11:32:45;;;;;;;10.90;2.05;;;;;;;17.63;100.00;99428.53;6215469;28;20057;-77
2024/03/30 11:35:54;;;;;;;13.15;1.35;;;;;;;17.76;100.00;99428.97;6209744;28;20065;-77
2024/03/30 11:38:58;;;;;;;;;;;;;;;17.71;100.00;99431.22;6220926;28;20062;-77
2024/03/30 11:42:07;;;;;;;9.68;1.50;;;;;;;17.69;100.00;99422.56;6218507;28;19928;-77
2024/03/30 11:45:09;;;;;;;16.00;1.65;;;;;;;17.56;100.00;99415.03;6213668;28;20049;-77
2024/03/30 11:48:12;;;;;;;4.50;1.67;;;;;;;17.57;100.00;99424.66;6221753;28;20050;-76
2024/03/30 11:51:16;;;;;;;6.03;1.42;;;;;;;17.46;100.00;99428.44;6218892;28;20181;-77
2024/03/30 11:54:21;;;;;;;22.73;2.33;;;;;;;17.50;100.00;99416.53;6214326;28;20439;-77
2024/03/30 11:57:25;;;;;;;10.35;2.10;;;;;;;17.60;100.00;99427.03;6210517;28;20050;-77
2024/03/30 12:00:30;;;;;;;9.43;1.42;;;;;;;17.93;100.00;99429.84;6210250;28;20089;-80
2024/03/30 12:03:31;;;;;;;9.20;2.63;;;;;;;18.37;100.00;99427.78;6212703;28;20046;-80
2024/03/30 12:06:32;;;;;;;7.70;1.52;;;;;;;18.72;100.00;99429.34;6219548;28;20061;-80
2024/03/30 12:09:33;;;;;;;7.72;2.00;;;;;;;18.88;100.00;99423.16;6211272;28;20061;-81
2024/03/30 12:12:37;;;;;;;11.25;2.15;;;;;;;19.03;100.00;99423.34;6214370;28;20049;-81
2024/03/30 12:15:39;;;;;;;14.30;3.08;;;;;;;18.88;100.00;99415.16;6213513;28;20061;-81
2024/03/30 12:18:41;;;;;;;9.82;2.13;;;;;;;18.62;100.00;99409.16;6214057;28;20466;-80
2024/03/30 12:21:42;;;;;;;6.63;1.17;;;;;;;18.45;100.00;99414.50;6212492;28;20052;-81
2024/03/30 12:24:44;;;;;;;16.10;1.73;;;;;;;18.43;100.00;99413.81;6222799;28;20046;-79
2024/03/30 12:27:45;;;;;;;17.45;1.60;;;;;;;18.40;100.00;99410.66;6219614;28;20438;-80
2024/03/30 12:30:50;;;;;;;9.88;1.92;;;;;;;18.43;100.00;99403.16;6234063;28;20053;-80
2024/03/30 12:33:50;;;;;;;4.72;1.38;;;;;;;18.40;100.00;99398.19;6224659;28;20053;-79
2024/03/30 12:36:54;;;;;;;14.40;2.08;;;;;;;18.39;100.00;99401.00;6218056;28;20050;-79
2024/03/30 12:39:55;;;;;;;15.57;1.48;;;;;;;18.34;100.00;99400.66;6233201;28;20078;-79
2024/03/30 12:42:56;;;;;;;10.07;1.70;;;;;;;18.45;100.00;99395.88;6221165;28;20046;-79
2024/03/30 12:46:00;;;;;;;10.52;1.50;;;;;;;18.52;100.00;99396.84;6223523;28;20111;-79
2024/03/30 12:49:02;;;;;;;12.63;2.10;;;;;;;18.52;100.00;99393.38;6219751;28;20129;-80
2024/03/30 12:52:04;;;;;;;13.90;1.98;;;;;;;18.48;100.00;99392.03;6227094;28;20485;-79
2024/03/30 12:55:05;;;;;;;7.35;1.70;;;;;;;18.40;100.00;99384.06;6225925;28;20045;-79
2024/03/30 12:58:06;;;;;;;13.50;2.22;;;;;;;18.48;100.00;99390.19;6228690;28;20100;-78
2024/03/30 13:01:08;;;;;;;9.73;2.90;;;;;;;18.59;100.00;99394.38;6232270;28;20049;-78
2024/03/30 13:04:10;;;;;;;13.48;2.67;;;;;;;18.60;100.00;99390.72;6219408;28;20050;-78
2024/03/30 13:07:10;;;;;;;16.00;2.50;;;;;;;18.60;100.00;99395.19;6211423;28;20053;-78
2024/03/30 13:10:12;;;;;;;13.30;2.00;;;;;;;18.70;100.00;99394.06;6215639;28;20072;-78
2024/03/30 13:13:12;;;;;;;10.45;1.92;;;;;;;18.71;100.00;99386.91;6228703;28;20057;-79
2024/03/30 13:16:19;;;;;;;14.45;2.00;;;;;;;18.74;100.00;99382.09;6210389;28;20080;-78
2024/03/30 13:19:21;;;;;;;15.95;1.92;;;;;;;18.68;100.00;99377.41;6216439;28;20057;-78
2024/03/30 13:22:21;;;;;;;13.68;1.80;;;;;;;18.61;100.00;99360.44;6214916;28;20053;-79
2024/03/30 13:25:23;;;;;;;14.52;1.80;;;;;;;18.60;100.00;99356.13;6227758;28;20454;-78
2024/03/30 13:28:23;;;;;;;7.63;2.15;;;;;;;18.65;95.64;99368.91;6224005;28;20058;-79
2024/03/30 13:31:26;;;;;;;16.35;2.03;;;;;;;18.73;100.00;99375.09;6222139;28;20078;-79
2024/03/30 13:34:26;;;;;;;12.43;1.52;;;;;;;18.81;100.00;99360.97;6227269;28;20054;-79
2024/03/30 13:37:28;;;;;;;18.13;1.95;;;;;;;18.91;100.00;99361.59;6252393;28;20052;-79
2024/03/30 13:40:28;;;;;;;13.88;1.95;;;;;;;18.93;100.00;99372.06;6250888;28;20053;-79
2024/03/30 13:43:29;;;;;;;12.32;3.30;;;;;;;18.92;100.00;99367.75;6227762;28;20080;-78
2024/03/30 13:46:31;;;;;;;18.60;3.53;;;;;;;18.84;100.00;99370.44;6235822;28;20045;-78
2024/03/30 13:49:33;;;;;;;17.35;2.60;;;;;;;18.71;100.00;99358.47;6214968;28;20050;-79
2024/03/30 13:52:34;;;;;;;7.97;1.88;;;;;;;18.60;100.00;99361.44;6209380;28;20053;-79
2024/03/30 13:55:35;;;;;;;21.20;2.35;;;;;;;18.45;100.00;99358.63;6213230;28;20053;-79
2024/03/30 13:58:36;;;;;;;14.18;3.50;;;;;;;18.33;100.00;99353.78;6216085;28;20527;-79
2024/03/30 14:01:38;;;;;;;25.88;2.75;;;;;;;18.23;100.00;99360.09;6215073;28;20061;-79
2024/03/30 14:04:39;;;;;;;19.08;2.08;;;;;;;18.09;100.00;99357.28;6222972;28;20064;-79
2024/03/30 14:07:40;;;;;;;11.82;2.20;;;;;;;18.06;100.00;99355.75;6220228;28;20077;-80